createdAt,value
2023-01-18T00:00:02.784Z,8.50
2023-01-18T00:01:02.779Z,7.10
2023-01-18T00:02:02.805Z,4.80
2023-01-18T00:03:02.735Z,6.80
2023-01-18T00:04:02.752Z,7.20
2023-01-18T00:05:02.777Z,6.10
2023-01-18T00:06:02.792Z,5.40
2023-01-18T00:07:02.698Z,7.80
2023-01-18T00:08:02.669Z,3.60
2023-01-18T00:09:02.685Z,5.30
2023-01-18T00:10:02.661Z,5.10
2023-01-18T00:11:02.641Z,6.40
2023-01-18T00:12:02.633Z,4.90
2023-01-18T00:13:02.641Z,4.70
2023-01-18T00:14:02.624Z,5.10
2023-01-18T00:15:02.633Z,5.20
2023-01-18T00:16:02.626Z,11.40
2023-01-18T00:17:02.577Z,8.90
2023-01-18T00:18:02.564Z,10.60
2023-01-18T00:19:02.594Z,9.70
2023-01-18T00:20:02.578Z,9.70
2023-01-18T00:21:02.543Z,7.00
2023-01-18T00:22:02.551Z,7.70
2023-01-18T00:23:02.523Z,8.60
2023-01-18T00:24:02.521Z,6.30
2023-01-18T00:25:02.494Z,6.90
2023-01-18T00:26:02.475Z,8.00
2023-01-18T00:27:02.469Z,6.20
2023-01-18T00:28:02.493Z,10.00
2023-01-18T00:29:02.445Z,9.00
2023-01-18T00:30:02.447Z,7.30
2023-01-18T00:31:02.494Z,6.40
2023-01-18T00:32:02.411Z,5.50
2023-01-18T00:33:02.417Z,7.40
2023-01-18T00:34:02.399Z,7.80
2023-01-18T00:35:02.391Z,8.30
2023-01-18T00:36:02.435Z,9.30
2023-01-18T00:37:02.358Z,12.10
2023-01-18T00:38:02.372Z,13.90
2023-01-18T00:39:02.337Z,17.70
2023-01-18T00:40:02.374Z,10.80
2023-01-18T00:41:02.335Z,9.20
2023-01-18T00:42:02.297Z,10.20
2023-01-18T00:43:02.293Z,9.10
2023-01-18T00:44:02.276Z,10.90
2023-01-18T00:45:02.281Z,10.20
2023-01-18T00:46:02.361Z,11.20
2023-01-18T00:47:02.250Z,13.10
2023-01-18T00:48:02.230Z,5.90
2023-01-18T00:49:02.246Z,9.60
2023-01-18T00:50:02.209Z,9.70
2023-01-18T00:51:02.203Z,8.40
2023-01-18T00:52:02.204Z,10.70
2023-01-18T00:53:02.182Z,9.30
2023-01-18T00:54:02.188Z,8.40
2023-01-18T00:55:02.179Z,5.50
2023-01-18T00:56:02.164Z,7.50
2023-01-18T00:57:02.161Z,7.30
2023-01-18T00:58:02.127Z,11.00
2023-01-18T00:59:02.114Z,5.10
2023-01-18T01:00:02.115Z,9.00
2023-01-18T01:01:02.236Z,12.00
2023-01-18T01:02:02.279Z,11.30
2023-01-18T01:03:02.076Z,7.70
2023-01-18T01:04:02.097Z,6.30
2023-01-18T01:05:02.057Z,8.30
2023-01-18T01:06:02.055Z,8.70
2023-01-18T01:07:02.025Z,6.90
2023-01-18T01:08:02.041Z,7.50
2023-01-18T01:09:02.006Z,6.90
2023-01-18T01:10:02.006Z,5.20
2023-01-18T01:11:02.008Z,6.90
2023-01-18T01:12:02.022Z,9.80
2023-01-18T01:13:01.966Z,7.20
2023-01-18T01:14:01.945Z,9.70
2023-01-18T01:15:01.979Z,4.60
2023-01-18T01:16:01.951Z,5.70
2023-01-18T01:17:01.920Z,12.90
2023-01-18T01:18:01.902Z,12.00
2023-01-18T01:19:01.917Z,14.50
2023-01-18T01:20:01.877Z,6.50
2023-01-18T01:21:01.874Z,7.20
2023-01-18T01:22:01.868Z,5.80
2023-01-18T01:23:01.873Z,7.40
2023-01-18T01:24:01.855Z,10.90
2023-01-18T01:25:01.851Z,10.20
2023-01-18T01:26:01.829Z,5.70
2023-01-18T01:27:01.822Z,6.10
2023-01-18T01:28:01.804Z,4.80
2023-01-18T01:29:01.784Z,9.60
2023-01-18T01:30:01.788Z,10.70
2023-01-18T01:31:01.814Z,8.40
2023-01-18T01:32:01.775Z,8.40
2023-01-18T01:33:01.752Z,8.90
2023-01-18T01:34:01.757Z,7.60
2023-01-18T01:35:01.726Z,5.90
2023-01-18T01:36:01.732Z,12.80
2023-01-18T01:37:01.746Z,6.60
2023-01-18T01:38:01.684Z,7.70
2023-01-18T01:39:01.679Z,8.10
2023-01-18T01:40:01.689Z,13.20
2023-01-18T01:41:01.676Z,10.50
2023-01-18T01:42:01.637Z,8.80
2023-01-18T01:43:01.631Z,8.20
2023-01-18T01:44:01.618Z,6.10
2023-01-18T01:45:01.623Z,5.50
2023-01-18T01:46:01.690Z,7.10
2023-01-18T01:47:01.604Z,10.50
2023-01-18T01:48:01.569Z,8.00
2023-01-18T01:49:01.565Z,9.50
2023-01-18T01:50:01.550Z,4.10
2023-01-18T01:51:01.547Z,5.50
2023-01-18T01:52:01.558Z,7.70
2023-01-18T01:53:01.522Z,8.00
2023-01-18T01:54:02.017Z,6.70
2023-01-18T01:55:01.536Z,5.80
2023-01-18T01:56:01.509Z,4.90
2023-01-18T01:57:01.537Z,5.70
2023-01-18T01:58:04.379Z,4.50
2023-01-18T01:59:01.508Z,10.90
2023-01-18T02:00:01.474Z,4.70
2023-01-18T02:01:01.536Z,12.60
2023-01-18T02:02:01.518Z,9.90
2023-01-18T02:03:01.720Z,9.90
2023-01-18T02:04:01.428Z,8.70
2023-01-18T02:05:01.393Z,7.70
2023-01-18T02:06:01.380Z,5.90
2023-01-18T02:07:01.364Z,4.70
2023-01-18T02:08:01.346Z,5.90
2023-01-18T02:09:01.363Z,4.60
2023-01-18T02:10:01.356Z,3.80
2023-01-18T02:11:01.318Z,5.40
2023-01-18T02:12:01.321Z,6.10
2023-01-18T02:13:01.304Z,4.20
2023-01-18T02:14:01.306Z,5.50
2023-01-18T02:15:01.281Z,3.00
2023-01-18T02:16:01.286Z,4.10
2023-01-18T02:17:01.324Z,6.10
2023-01-18T02:18:01.239Z,8.50
2023-01-18T02:19:01.227Z,5.20
2023-01-18T02:20:01.256Z,6.10
2023-01-18T02:21:01.211Z,5.70
2023-01-18T02:22:01.210Z,7.30
2023-01-18T02:23:01.185Z,4.80
2023-01-18T02:24:01.178Z,3.90
2023-01-18T02:25:01.195Z,4.30
2023-01-18T02:26:01.147Z,3.70
2023-01-18T02:27:01.149Z,3.20
2023-01-18T02:28:01.144Z,4.80
2023-01-18T02:29:01.221Z,9.30
2023-01-18T02:30:01.113Z,5.10
2023-01-18T02:31:01.178Z,4.60
2023-01-18T02:32:01.090Z,4.80
2023-01-18T02:33:01.085Z,5.60
2023-01-18T02:34:01.178Z,3.10
2023-01-18T02:35:01.088Z,2.80
2023-01-18T02:36:01.042Z,4.90
2023-01-18T02:37:01.046Z,5.00
2023-01-18T02:38:01.036Z,5.10
2023-01-18T02:39:01.022Z,9.40
2023-01-18T02:40:01.021Z,11.50
2023-01-18T02:41:01.001Z,8.00
2023-01-18T02:42:00.982Z,3.70
2023-01-18T02:43:01.056Z,5.40
2023-01-18T02:44:00.988Z,3.80
2023-01-18T02:45:00.940Z,4.90
2023-01-18T02:46:00.980Z,4.00
2023-01-18T02:47:00.921Z,6.30
2023-01-18T02:48:00.909Z,11.90
2023-01-18T02:49:00.919Z,3.40
2023-01-18T02:50:00.891Z,4.20
2023-01-18T02:51:00.884Z,9.20
2023-01-18T02:52:00.872Z,4.60
2023-01-18T02:53:00.872Z,3.70
2023-01-18T02:54:00.870Z,5.00
2023-01-18T02:55:00.834Z,5.40
2023-01-18T02:56:00.823Z,3.90
2023-01-18T02:57:00.817Z,3.20
2023-01-18T02:58:00.810Z,4.40
2023-01-18T02:59:00.810Z,5.50
2023-01-18T03:00:00.795Z,4.40
2023-01-18T03:01:00.806Z,5.10
2023-01-18T03:02:00.782Z,5.60
2023-01-18T03:03:01.291Z,4.90
2023-01-18T03:04:00.764Z,4.00
2023-01-18T03:05:00.730Z,3.60
2023-01-18T03:06:00.721Z,5.60
2023-01-18T03:07:00.702Z,4.30
2023-01-18T03:08:00.707Z,9.70
2023-01-18T03:09:00.707Z,4.00
2023-01-18T03:10:00.672Z,4.40
2023-01-18T03:11:00.670Z,4.40
2023-01-18T03:12:00.649Z,7.30
2023-01-18T03:13:00.790Z,10.10
2023-01-18T03:14:00.637Z,4.10
2023-01-18T03:15:00.639Z,6.10
2023-01-18T03:16:00.655Z,5.60
2023-01-18T03:17:00.606Z,4.00
2023-01-18T03:18:00.607Z,4.30
2023-01-18T03:19:00.565Z,8.00
2023-01-18T03:20:00.578Z,4.20
2023-01-18T03:21:00.543Z,4.00
2023-01-18T03:22:00.535Z,5.20
2023-01-18T03:23:00.992Z,3.50
2023-01-18T03:24:00.509Z,3.50
2023-01-18T03:25:00.528Z,4.70
2023-01-18T03:26:00.499Z,3.90
2023-01-18T03:27:00.547Z,5.70
2023-01-18T03:28:00.465Z,3.70
2023-01-18T03:29:00.465Z,4.80
2023-01-18T03:30:00.464Z,4.80
2023-01-18T03:31:00.459Z,4.20
2023-01-18T03:32:00.438Z,5.30
2023-01-18T03:33:00.659Z,3.50
2023-01-18T03:34:00.418Z,10.80
2023-01-18T03:35:00.604Z,7.40
2023-01-18T03:36:00.377Z,5.00
2023-01-18T03:37:00.369Z,7.90
2023-01-18T03:38:00.352Z,6.90
2023-01-18T03:39:03.714Z,5.40
2023-01-18T03:40:00.329Z,4.00
2023-01-18T03:41:00.347Z,4.50
2023-01-18T03:42:00.313Z,5.00
2023-01-18T03:43:00.421Z,4.50
2023-01-18T03:44:00.287Z,3.90
2023-01-18T03:45:00.302Z,9.50
2023-01-18T03:46:00.302Z,5.90
2023-01-18T03:47:00.272Z,3.30
2023-01-18T03:48:00.280Z,7.10
2023-01-18T03:49:00.236Z,6.00
2023-01-18T03:50:00.221Z,4.00
2023-01-18T03:51:00.241Z,5.30
2023-01-18T03:52:00.217Z,4.30
2023-01-18T03:53:00.311Z,9.20
2023-01-18T03:54:00.177Z,6.40
2023-01-18T03:55:00.206Z,3.70
2023-01-18T03:56:00.162Z,3.30
2023-01-18T03:57:00.148Z,5.30
2023-01-18T03:58:00.132Z,12.30
2023-01-18T03:59:00.144Z,4.00
2023-01-18T04:00:00.157Z,4.00
2023-01-18T04:01:00.191Z,5.60
2023-01-18T04:02:00.188Z,4.00
2023-01-18T04:03:00.626Z,5.50
2023-01-18T04:04:00.156Z,3.90
2023-01-18T04:05:00.092Z,10.00
2023-01-18T04:06:00.079Z,3.60
2023-01-18T04:07:00.044Z,3.50
2023-01-18T04:08:00.028Z,4.60
2023-01-18T04:09:00.051Z,5.80
2023-01-18T04:10:00.039Z,6.50
2023-01-18T04:11:00.002Z,5.20
2023-01-18T04:11:59.999Z,6.00
2023-01-18T04:13:00.494Z,4.20
2023-01-18T04:13:59.959Z,6.30
2023-01-18T04:14:59.960Z,5.80
2023-01-18T04:16:00.028Z,4.90
2023-01-18T04:16:59.931Z,5.60
2023-01-18T04:17:59.917Z,4.30
2023-01-18T04:18:59.911Z,4.70
2023-01-18T04:19:59.984Z,6.10
2023-01-18T04:20:59.897Z,4.20
2023-01-18T04:21:59.891Z,3.90
2023-01-18T04:23:00.453Z,4.00
2023-01-18T04:23:59.848Z,7.50
2023-01-18T04:24:59.853Z,7.90
2023-01-18T04:25:59.897Z,7.80
2023-01-18T04:26:59.836Z,5.70
2023-01-18T04:27:59.818Z,4.90
2023-01-18T04:28:59.807Z,5.20
2023-01-18T04:29:59.792Z,5.70
2023-01-18T04:30:59.853Z,6.30
2023-01-18T04:31:59.770Z,4.70
2023-01-18T04:33:00.189Z,5.60
2023-01-18T04:33:59.760Z,8.80
2023-01-18T04:34:59.735Z,11.70
2023-01-18T04:35:59.758Z,7.20
2023-01-18T04:36:59.705Z,7.30
2023-01-18T04:37:59.714Z,12.40
2023-01-18T04:38:59.681Z,5.60
2023-01-18T04:39:59.681Z,5.00
2023-01-18T04:40:59.678Z,8.60
2023-01-18T04:41:59.672Z,6.80
2023-01-18T04:42:59.990Z,4.80
2023-01-18T04:43:59.630Z,6.20
2023-01-18T04:44:59.620Z,4.40
2023-01-18T04:45:59.624Z,5.60
2023-01-18T04:46:59.617Z,7.60
2023-01-18T04:47:59.611Z,5.70
2023-01-18T04:48:59.569Z,9.80
2023-01-18T04:49:59.600Z,11.70
2023-01-18T04:50:59.551Z,9.80
2023-01-18T04:51:59.591Z,13.00
2023-01-18T04:53:00.218Z,9.10
2023-01-18T04:53:59.528Z,9.80
2023-01-18T04:54:59.536Z,8.50
2023-01-18T04:55:59.495Z,8.90
2023-01-18T04:56:59.482Z,10.60
2023-01-18T04:57:59.487Z,12.40
2023-01-18T04:58:59.474Z,11.80
2023-01-18T04:59:59.468Z,12.20
2023-01-18T05:00:59.517Z,8.40
2023-01-18T05:01:59.465Z,8.50
2023-01-18T05:02:59.826Z,7.20
2023-01-18T05:03:59.462Z,6.70
2023-01-18T05:04:59.392Z,8.70
2023-01-18T05:05:59.468Z,6.50
2023-01-18T05:06:59.468Z,6.70
2023-01-18T05:07:59.417Z,6.80
2023-01-18T05:08:59.351Z,8.70
2023-01-18T05:09:59.347Z,11.40
2023-01-18T05:10:59.325Z,9.20
2023-01-18T05:11:59.370Z,7.10
2023-01-18T05:12:59.754Z,8.40
2023-01-18T05:13:59.301Z,7.10
2023-01-18T05:14:59.281Z,9.70
2023-01-18T05:16:04.538Z,8.90
2023-01-18T05:16:59.262Z,5.80
2023-01-18T05:17:59.271Z,7.30
2023-01-18T05:18:59.239Z,5.20
2023-01-18T05:19:59.231Z,6.20
2023-01-18T05:20:59.215Z,5.70
2023-01-18T05:21:59.214Z,4.10
2023-01-18T05:22:59.600Z,5.50
2023-01-18T05:23:59.222Z,4.60
2023-01-18T05:24:59.176Z,4.50
2023-01-18T05:25:59.245Z,5.50
2023-01-18T05:26:59.176Z,6.30
2023-01-18T05:27:59.179Z,6.40
2023-01-18T05:28:59.123Z,5.20
2023-01-18T05:29:59.116Z,4.80
2023-01-18T05:30:59.121Z,5.20
2023-01-18T05:31:59.103Z,5.30
2023-01-18T05:32:59.523Z,6.90
2023-01-18T05:33:59.090Z,8.10
2023-01-18T05:34:59.074Z,8.70
2023-01-18T05:35:59.051Z,8.60
2023-01-18T05:36:59.053Z,10.30
2023-01-18T05:37:59.054Z,7.70
2023-01-18T05:38:59.024Z,5.60
2023-01-18T05:39:59.040Z,8.30
2023-01-18T05:40:59.018Z,7.90
2023-01-18T05:42:00.225Z,6.80
2023-01-18T05:42:59.333Z,6.80
2023-01-18T05:43:58.971Z,6.00
2023-01-18T05:44:58.952Z,7.10
2023-01-18T05:45:59.156Z,8.20
2023-01-18T05:46:58.928Z,8.90
2023-01-18T05:47:58.938Z,8.30
2023-01-18T05:48:58.912Z,13.40
2023-01-18T05:49:58.897Z,8.70
2023-01-18T05:50:58.882Z,10.40
2023-01-18T05:51:58.886Z,10.50
2023-01-18T05:52:59.336Z,7.70
2023-01-18T05:53:58.857Z,6.80
2023-01-18T05:54:58.835Z,15.30
2023-01-18T05:55:58.884Z,9.90
2023-01-18T05:56:58.815Z,8.10
2023-01-18T05:57:58.820Z,10.00
2023-01-18T05:58:58.812Z,8.60
2023-01-18T05:59:58.786Z,8.40
2023-01-18T06:00:58.849Z,10.20
2023-01-18T06:01:58.885Z,9.70
2023-01-18T06:02:59.129Z,7.50
2023-01-18T06:03:58.751Z,9.80
2023-01-18T06:04:58.729Z,6.80
2023-01-18T06:05:58.737Z,10.70
2023-01-18T06:06:58.707Z,6.60
2023-01-18T06:07:58.696Z,7.90
2023-01-18T06:08:58.684Z,5.90
2023-01-18T06:09:58.707Z,6.80
2023-01-18T06:10:58.668Z,7.70
2023-01-18T06:11:58.706Z,6.70
2023-01-18T06:12:58.978Z,7.30
2023-01-18T06:13:58.638Z,7.10
2023-01-18T06:14:58.616Z,7.50
2023-01-18T06:15:58.640Z,7.30
2023-01-18T06:16:58.593Z,7.30
2023-01-18T06:17:58.588Z,16.50
2023-01-18T06:18:58.590Z,11.60
2023-01-18T06:19:58.567Z,12.70
2023-01-18T06:21:01.126Z,12.50
2023-01-18T06:21:58.576Z,11.90
2023-01-18T06:22:58.978Z,11.20
2023-01-18T06:23:58.517Z,12.10
2023-01-18T06:24:58.508Z,10.40
2023-01-18T06:25:58.513Z,10.00
2023-01-18T06:26:58.498Z,8.50
2023-01-18T06:27:58.496Z,9.00
2023-01-18T06:28:58.510Z,9.80
2023-01-18T06:29:58.463Z,30.50
2023-01-18T06:30:58.448Z,39.60
2023-01-18T06:31:58.524Z,37.90
2023-01-18T06:32:58.773Z,34.80
2023-01-18T06:33:58.419Z,22.50
2023-01-18T06:34:58.391Z,15.20
2023-01-18T06:35:58.412Z,11.80
2023-01-18T06:36:58.374Z,9.40
2023-01-18T06:37:58.372Z,7.90
2023-01-18T06:38:58.350Z,8.10
2023-01-18T06:39:58.355Z,6.20
2023-01-18T06:40:58.399Z,5.60
2023-01-18T06:41:58.324Z,7.50
2023-01-18T06:42:58.624Z,6.50
2023-01-18T06:43:58.495Z,9.30
2023-01-18T06:44:58.291Z,9.80
2023-01-18T06:45:58.389Z,12.50
2023-01-18T06:46:58.262Z,6.40
2023-01-18T06:47:58.260Z,11.90
2023-01-18T06:48:58.260Z,13.00
2023-01-18T06:49:58.234Z,6.00
2023-01-18T06:50:58.259Z,6.20
2023-01-18T06:51:58.224Z,6.50
2023-01-18T06:52:59.655Z,6.40
2023-01-18T06:53:58.209Z,11.60
2023-01-18T06:54:58.172Z,11.40
2023-01-18T06:55:58.180Z,7.80
2023-01-18T06:56:58.163Z,12.60
2023-01-18T06:57:58.152Z,6.60
2023-01-18T06:58:58.150Z,11.40
2023-01-18T06:59:58.147Z,10.70
2023-01-18T07:00:58.236Z,11.00
2023-01-18T07:01:58.253Z,8.80
2023-01-18T07:02:58.495Z,9.10
2023-01-18T07:03:58.158Z,12.90
2023-01-18T07:04:58.067Z,9.10
2023-01-18T07:05:58.077Z,9.80
2023-01-18T07:06:58.045Z,8.00
2023-01-18T07:07:58.039Z,7.80
2023-01-18T07:08:58.023Z,6.80
2023-01-18T07:09:58.046Z,6.50
2023-01-18T07:10:58.000Z,9.50
2023-01-18T07:11:57.997Z,9.60
2023-01-18T07:12:58.240Z,12.30
2023-01-18T07:13:57.966Z,9.10
2023-01-18T07:14:57.976Z,14.60
2023-01-18T07:16:00.657Z,8.40
2023-01-18T07:16:58.006Z,11.40
2023-01-18T07:17:57.925Z,7.90
2023-01-18T07:18:57.910Z,6.10
2023-01-18T07:19:57.903Z,9.20
2023-01-18T07:20:57.907Z,12.40
2023-01-18T07:21:57.895Z,9.00
2023-01-18T07:22:58.256Z,8.20
2023-01-18T07:23:57.860Z,15.90
2023-01-18T07:24:57.868Z,17.60
2023-01-18T07:25:57.856Z,9.90
2023-01-18T07:26:57.823Z,11.80
2023-01-18T07:27:57.859Z,12.60
2023-01-18T07:28:57.801Z,10.90
2023-01-18T07:29:57.797Z,13.70
2023-01-18T07:30:57.794Z,10.20
2023-01-18T07:31:57.914Z,10.90
2023-01-18T07:32:58.110Z,10.80
2023-01-18T07:33:57.769Z,12.00
2023-01-18T07:34:59.495Z,11.70
2023-01-18T07:35:57.731Z,11.30
2023-01-18T07:36:57.712Z,12.50
2023-01-18T07:37:57.728Z,12.80
2023-01-18T07:38:57.683Z,10.80
2023-01-18T07:39:57.700Z,10.80
2023-01-18T07:40:57.676Z,12.60
2023-01-18T07:41:57.703Z,13.20
2023-01-18T07:42:58.097Z,12.40
2023-01-18T07:43:57.635Z,12.20
2023-01-18T07:44:57.624Z,12.80
2023-01-18T07:45:57.655Z,15.50
2023-01-18T07:46:57.600Z,12.80
2023-01-18T07:47:57.632Z,12.10
2023-01-18T07:48:57.576Z,11.90
2023-01-18T07:49:57.572Z,15.40
2023-01-18T07:50:57.569Z,12.70
2023-01-18T07:51:57.570Z,15.50
2023-01-18T07:52:58.019Z,16.90
2023-01-18T07:53:57.530Z,16.80
2023-01-18T07:54:57.512Z,14.10
2023-01-18T07:55:57.522Z,13.50
2023-01-18T07:56:57.493Z,14.20
2023-01-18T07:57:57.497Z,12.20
2023-01-18T07:58:57.493Z,16.20
2023-01-18T07:59:57.461Z,12.10
2023-01-18T08:00:57.472Z,18.40
2023-01-18T08:01:57.504Z,17.10
2023-01-18T08:02:59.143Z,14.90
2023-01-18T08:03:57.434Z,14.20
2023-01-18T08:04:57.403Z,16.10
2023-01-18T08:05:57.390Z,12.70
2023-01-18T08:06:57.388Z,20.90
2023-01-18T08:07:57.391Z,18.70
2023-01-18T08:08:57.397Z,22.00
2023-01-18T08:09:57.378Z,25.00
2023-01-18T08:10:57.333Z,15.20
2023-01-18T08:11:57.327Z,22.90
2023-01-18T08:12:57.749Z,16.50
2023-01-18T08:13:57.305Z,13.30
2023-01-18T08:14:57.305Z,17.70
2023-01-18T08:15:57.425Z,14.80
2023-01-18T08:16:57.265Z,17.10
2023-01-18T08:17:57.265Z,15.10
2023-01-18T08:18:57.244Z,25.20
2023-01-18T08:19:57.260Z,18.30
2023-01-18T08:20:57.235Z,14.30
2023-01-18T08:21:57.258Z,13.10
2023-01-18T08:22:57.675Z,23.50
2023-01-18T08:23:57.195Z,25.90
2023-01-18T08:24:57.194Z,19.40
2023-01-18T08:25:57.171Z,13.40
2023-01-18T08:26:57.174Z,15.40
2023-01-18T08:27:57.182Z,14.80
2023-01-18T08:28:57.134Z,18.70
2023-01-18T08:29:59.667Z,12.80
2023-01-18T08:30:57.130Z,11.70
2023-01-18T08:31:57.122Z,13.10
2023-01-18T08:32:57.520Z,16.50
2023-01-18T08:33:57.104Z,13.60
2023-01-18T08:34:57.091Z,16.70
2023-01-18T08:35:57.143Z,13.20
2023-01-18T08:36:57.077Z,15.20
2023-01-18T08:37:57.033Z,15.80
2023-01-18T08:38:57.065Z,15.40
2023-01-18T08:39:57.023Z,14.70
2023-01-18T08:40:56.998Z,15.10
2023-01-18T08:41:57.013Z,12.70
2023-01-18T08:42:57.420Z,13.10
2023-01-18T08:43:56.968Z,11.80
2023-01-18T08:44:56.959Z,12.00
2023-01-18T08:45:56.958Z,13.50
2023-01-18T08:46:56.968Z,11.30
2023-01-18T08:47:56.939Z,16.30
2023-01-18T08:48:56.931Z,11.40
2023-01-18T08:49:56.899Z,11.80
2023-01-18T08:50:56.912Z,12.60
2023-01-18T08:51:56.921Z,14.40
2023-01-18T08:52:57.335Z,13.90
2023-01-18T08:53:56.873Z,11.90
2023-01-18T08:54:56.850Z,13.00
2023-01-18T08:55:56.834Z,14.90
2023-01-18T08:56:56.828Z,12.50
2023-01-18T08:57:56.842Z,11.80
2023-01-18T08:58:56.854Z,13.60
2023-01-18T08:59:56.796Z,12.20
2023-01-18T09:00:56.829Z,11.40
2023-01-18T09:01:56.813Z,11.60
2023-01-18T09:02:57.294Z,13.10
2023-01-18T09:03:56.768Z,14.90
2023-01-18T09:04:56.757Z,17.50
2023-01-18T09:05:56.720Z,14.80
2023-01-18T09:06:56.716Z,16.20
2023-01-18T09:07:56.815Z,14.00
2023-01-18T09:08:56.715Z,12.90
2023-01-18T09:09:56.696Z,14.00
2023-01-18T09:10:56.692Z,13.00
2023-01-18T09:11:56.651Z,12.50
2023-01-18T09:12:57.106Z,12.00
2023-01-18T09:14:01.668Z,47.30
2023-01-18T09:14:57.647Z,12.00
2023-01-18T09:15:56.660Z,36.80
2023-01-18T09:16:56.612Z,10.60
2023-01-18T09:17:56.588Z,15.00
2023-01-18T09:18:56.693Z,16.30
2023-01-18T09:19:56.567Z,11.90
2023-01-18T09:20:56.561Z,13.00
2023-01-18T09:21:56.609Z,13.60
2023-01-18T09:22:56.890Z,15.10
2023-01-18T09:23:56.569Z,16.70
2023-01-18T09:24:56.514Z,15.00
2023-01-18T09:25:56.501Z,18.30
2023-01-18T09:26:56.498Z,16.30
2023-01-18T09:27:56.484Z,13.30
2023-01-18T09:28:56.506Z,18.50
2023-01-18T09:29:56.456Z,16.00
2023-01-18T09:30:56.496Z,16.70
2023-01-18T09:31:56.436Z,18.80
2023-01-18T09:32:56.781Z,15.50
2023-01-18T09:34:00.977Z,18.70
2023-01-18T09:34:57.411Z,18.20
2023-01-18T09:35:56.404Z,15.80
2023-01-18T09:36:56.381Z,16.90
2023-01-18T09:37:56.396Z,15.80
2023-01-18T09:38:56.378Z,20.70
2023-01-18T09:39:56.380Z,46.70
2023-01-18T09:40:56.346Z,23.80
2023-01-18T09:41:56.341Z,19.10
2023-01-18T09:42:56.669Z,14.20
2023-01-18T09:43:56.318Z,14.80
2023-01-18T09:44:56.307Z,12.80
2023-01-18T09:45:56.290Z,12.50
2023-01-18T09:46:56.389Z,12.60
2023-01-18T09:47:56.274Z,16.00
2023-01-18T09:48:56.251Z,15.80
2023-01-18T09:49:56.245Z,18.40
2023-01-18T09:50:56.221Z,15.00
2023-01-18T09:51:56.208Z,13.50
2023-01-18T09:52:56.548Z,12.40
2023-01-18T09:53:56.195Z,13.30
2023-01-18T09:54:56.189Z,13.80
2023-01-18T09:55:56.228Z,13.00
2023-01-18T09:56:56.174Z,16.30
2023-01-18T09:57:56.184Z,17.30
2023-01-18T09:58:56.158Z,12.60
2023-01-18T09:59:56.121Z,10.60
2023-01-18T10:00:56.227Z,10.90
2023-01-18T10:01:56.408Z,16.40
2023-01-18T10:02:58.099Z,21.70
2023-01-18T10:03:56.100Z,15.90
2023-01-18T10:04:56.078Z,15.30
2023-01-18T10:05:56.058Z,14.10
2023-01-18T10:06:56.053Z,12.30
2023-01-18T10:07:56.045Z,15.50
2023-01-18T10:08:56.045Z,12.90
2023-01-18T10:09:56.013Z,21.10
2023-01-18T10:10:56.026Z,10.70
2023-01-18T10:11:56.021Z,14.40
2023-01-18T10:12:56.157Z,12.60
2023-01-18T10:13:55.994Z,12.80
2023-01-18T10:14:55.970Z,14.70
2023-01-18T10:15:55.986Z,13.90
2023-01-18T10:16:55.938Z,15.30
2023-01-18T10:17:55.922Z,13.40
2023-01-18T10:18:55.935Z,14.20
2023-01-18T10:19:55.899Z,13.30
2023-01-18T10:20:55.899Z,14.00
2023-01-18T10:21:55.887Z,11.90
2023-01-18T10:22:56.270Z,12.30
2023-01-18T10:23:55.877Z,13.90
2023-01-18T10:24:55.873Z,14.70
2023-01-18T10:25:55.882Z,11.20
2023-01-18T10:26:55.848Z,13.30
2023-01-18T10:27:55.831Z,14.00
2023-01-18T10:28:55.803Z,12.10
2023-01-18T10:29:55.819Z,12.40
2023-01-18T10:30:55.792Z,12.10
2023-01-18T10:31:55.791Z,14.70
2023-01-18T10:32:55.842Z,14.70
2023-01-18T10:33:55.765Z,14.20
2023-01-18T10:34:55.768Z,14.50
2023-01-18T10:35:55.755Z,14.40
2023-01-18T10:36:55.743Z,14.50
2023-01-18T10:37:55.740Z,14.70
2023-01-18T10:38:55.707Z,19.70
2023-01-18T10:39:55.679Z,22.00
2023-01-18T10:40:55.675Z,21.50
2023-01-18T10:41:55.684Z,19.00
2023-01-18T10:42:55.754Z,21.30
2023-01-18T10:43:55.655Z,20.30
2023-01-18T10:44:55.663Z,22.30
2023-01-18T10:45:55.652Z,20.40
2023-01-18T10:46:55.604Z,24.10
2023-01-18T10:47:55.595Z,34.20
2023-01-18T10:48:55.589Z,28.90
2023-01-18T10:49:55.593Z,30.90
2023-01-18T10:50:55.575Z,32.10
2023-01-18T10:51:55.549Z,29.40
2023-01-18T10:52:55.562Z,21.90
2023-01-18T10:53:55.539Z,20.60
2023-01-18T10:54:55.548Z,22.30
2023-01-18T10:55:55.524Z,21.90
2023-01-18T10:56:55.495Z,20.10
2023-01-18T10:57:55.522Z,19.70
2023-01-18T10:58:55.477Z,22.80
2023-01-18T10:59:55.478Z,23.90
2023-01-18T11:00:55.589Z,23.70
2023-01-18T11:01:55.634Z,24.20
2023-01-18T11:02:55.452Z,24.80
2023-01-18T11:03:55.422Z,20.20
2023-01-18T11:04:55.447Z,18.90
2023-01-18T11:05:55.408Z,21.10
2023-01-18T11:06:55.384Z,20.30
2023-01-18T11:07:55.364Z,19.10
2023-01-18T11:08:55.389Z,19.50
2023-01-18T11:09:55.344Z,21.50
2023-01-18T11:10:55.377Z,20.70
2023-01-18T11:11:55.326Z,21.50
2023-01-18T11:12:55.318Z,19.60
2023-01-18T11:13:55.305Z,15.80
2023-01-18T11:14:55.304Z,18.80
2023-01-18T11:15:55.297Z,17.80
2023-01-18T11:16:55.300Z,17.70
2023-01-18T11:17:55.266Z,16.70
2023-01-18T11:18:55.258Z,15.10
2023-01-18T11:19:55.263Z,17.70
2023-01-18T11:20:55.243Z,14.50
2023-01-18T11:21:55.235Z,17.00
2023-01-18T11:22:55.270Z,19.10
2023-01-18T11:23:55.221Z,18.40
2023-01-18T11:24:55.194Z,16.10
2023-01-18T11:25:55.174Z,16.30
2023-01-18T11:26:55.185Z,14.80
2023-01-18T11:27:55.166Z,13.50
2023-01-18T11:28:55.172Z,12.60
2023-01-18T11:29:55.131Z,12.20
2023-01-18T11:30:55.128Z,11.80
2023-01-18T11:31:55.171Z,13.20
2023-01-18T11:32:55.125Z,17.40
2023-01-18T11:33:55.090Z,12.60
2023-01-18T11:34:55.068Z,11.60
2023-01-18T11:35:55.182Z,14.20
2023-01-18T11:36:55.054Z,12.20
2023-01-18T11:37:55.038Z,11.70
2023-01-18T11:38:55.045Z,13.20
2023-01-18T11:39:55.024Z,13.00
2023-01-18T11:40:55.034Z,15.10
2023-01-18T11:41:55.004Z,17.50
2023-01-18T11:42:55.016Z,16.10
2023-01-18T11:43:54.978Z,13.30
2023-01-18T11:44:54.968Z,18.80
2023-01-18T11:45:55.025Z,16.40
2023-01-18T11:46:54.957Z,12.80
2023-01-18T11:47:54.957Z,15.50
2023-01-18T11:48:54.956Z,12.40
2023-01-18T11:49:54.944Z,13.10
2023-01-18T11:50:54.898Z,13.20
2023-01-18T11:51:54.878Z,16.50
2023-01-18T11:52:54.875Z,13.80
2023-01-18T11:53:54.878Z,15.40
2023-01-18T11:54:54.866Z,15.70
2023-01-18T11:55:54.840Z,14.40
2023-01-18T11:56:54.834Z,18.50
2023-01-18T11:57:54.834Z,16.60
2023-01-18T11:58:54.806Z,15.90
2023-01-18T11:59:54.824Z,20.10
2023-01-18T12:00:54.827Z,18.00
2023-01-18T12:01:54.791Z,15.60
2023-01-18T12:02:54.776Z,15.30
2023-01-18T12:03:54.784Z,10.50
2023-01-18T12:04:54.745Z,11.00
2023-01-18T12:05:54.767Z,10.50
2023-01-18T12:06:54.744Z,11.50
2023-01-18T12:07:54.705Z,13.30
2023-01-18T12:08:54.715Z,14.80
2023-01-18T12:09:54.696Z,11.70
2023-01-18T12:10:54.675Z,11.30
2023-01-18T12:11:54.658Z,12.00
2023-01-18T12:12:54.667Z,11.30
2023-01-18T12:13:54.663Z,11.90
2023-01-18T12:14:54.628Z,14.40
2023-01-18T12:15:54.617Z,12.40
2023-01-18T12:16:54.661Z,10.70
2023-01-18T12:18:11.365Z,11.70
2023-01-18T12:18:55.594Z,12.00
2023-01-18T12:19:54.586Z,12.50
2023-01-18T12:20:54.560Z,10.20
2023-01-18T12:21:54.555Z,12.50
2023-01-18T12:22:54.539Z,12.60
2023-01-18T12:23:54.558Z,14.10
2023-01-18T12:24:54.517Z,13.70
2023-01-18T12:26:10.748Z,15.00
2023-01-18T12:26:55.527Z,17.20
2023-01-18T12:27:54.476Z,15.80
2023-01-18T12:28:54.485Z,14.10
2023-01-18T12:29:54.469Z,14.10
2023-01-18T12:30:54.568Z,11.90
2023-01-18T12:31:54.460Z,13.20
2023-01-18T12:32:54.435Z,11.70
2023-01-18T12:33:54.413Z,17.70
2023-01-18T12:34:54.400Z,14.60
2023-01-18T12:35:54.423Z,16.60
2023-01-18T12:36:54.407Z,17.10
2023-01-18T12:37:54.539Z,17.90
2023-01-18T12:38:54.395Z,22.20
2023-01-18T12:39:54.373Z,16.10
2023-01-18T12:40:54.341Z,21.80
2023-01-18T12:41:54.373Z,17.60
2023-01-18T12:42:54.324Z,15.10
2023-01-18T12:43:55.710Z,13.10
2023-01-18T12:44:54.341Z,15.90
2023-01-18T12:45:54.321Z,14.50
2023-01-18T12:46:54.288Z,21.80
2023-01-18T12:47:54.290Z,13.90
2023-01-18T12:48:54.285Z,15.50
2023-01-18T12:49:54.264Z,13.10
2023-01-18T12:50:54.241Z,12.30
2023-01-18T12:51:54.275Z,20.00
2023-01-18T12:52:54.213Z,14.40
2023-01-18T12:53:54.201Z,15.50
2023-01-18T12:54:54.197Z,12.50
2023-01-18T12:55:54.183Z,15.10
2023-01-18T12:56:54.202Z,12.90
2023-01-18T12:57:54.163Z,11.90
2023-01-18T12:58:54.158Z,13.30
2023-01-18T12:59:54.167Z,11.00
2023-01-18T13:00:54.165Z,13.50
2023-01-18T13:01:54.133Z,13.20
2023-01-18T13:02:54.203Z,15.90
2023-01-18T13:03:54.095Z,11.10